Latest Weather Observations for Camden

IDN60901

Issued at 5:51 am EST Tuesday 24 September 2019 (issued every 10 minutes, with the page automatically refreshed every 10 minutes)

About weather observations | Map of Sydney area stations | Latest observations for Sydney area | Other Formats
Station Details ID: 068192 Name: CAMDEN AIRPORT AWS Lat: -34.04 Lon: 150.69 Height: 73.9 m
Data from the previous 72 hours. | See also: Recent months at Camden
Date/Time
EST
Temp
°C
App
Temp
°C
Dew
Point
°C
Rel
Hum
%
Delta-T
°C
Wind Press
QNH
hPa
Press
MSL
hPa
Rain since
9am
mm
Dir  Spd
km/h
Gust
km/h
Spd
kts
Gust
kts
24/05:30am 3.1 1.4 1.8 91 0.5 CALM 0 0 0 0 1026.8 1026.8 0.0
24/05:00am 3.5 2.0 2.8 95 0.3 CALM 0 0 0 0 1026.3 1026.3 0.0
24/04:30am 3.1 1.5 2.2 94 0.4 CALM 0 0 0 0 1026.2 1026.2 0.0
24/04:00am 3.6 1.2 2.3 91 0.5 ESE 4 9 2 5 1026.2 1026.2 0.0
24/03:30am 4.0 2.2 1.5 84 1.0 CALM 0 0 0 0 1026.2 1026.2 0.0
24/03:00am 5.1 3.7 3.3 88 0.7 CALM 0 0 0 0 1026.1 1026.1 0.0
24/02:30am 4.5 3.0 2.8 89 0.7 CALM 0 0 0 0 1026.0 1026.0 0.0
24/02:00am 4.9 3.0 2.9 87 0.8 SSE 2 9 1 5 1026.0 1026.0 0.0
24/01:30am 5.3 3.8 2.8 84 1.0 CALM 0 0 0 0 1026.1 1026.1 0.0
24/01:00am 5.4 3.8 2.4 81 1.2 CALM 0 0 0 0 1026.2 1026.2 0.0
24/12:30am 7.6 5.9 1.7 66 2.4 CALM 0 0 0 0 1026.2 1026.2 0.0
24/12:00am 6.5 4.9 2.6 76 1.6 CALM 0 0 0 0 1026.2 1026.2 0.0
 
Date/Time
EST
Temp
°C
App
Temp
°C
Dew
Point
°C
Rel
Hum
%
Delta-T
°C
Wind Press
QNH
hPa
Press
MSL
hPa
Rain since
9am
mm
Dir  Spd
km/h
Gust
km/h
Spd
kts
Gust
kts
23/11:30pm 7.1 5.5 2.6 73 1.9 CALM 0 0 0 0 1026.2 1026.2 0.0
23/11:00pm 7.9 5.2 2.4 68 2.3 S 6 7 3 4 1026.1 1026.1 0.0
23/10:30pm 8.3 6.5 1.2 61 2.9 CALM 0 0 0 0 1026.0 1026.0 0.0
23/10:00pm 9.0 6.8 1.2 58 3.2 SW 2 9 1 5 1026.2 1026.2 0.0
23/09:30pm 11.2 8.0 0.6 48 4.4 NNE 7 7 4 4 1026.0 1026.0 0.0
23/09:00pm 11.0 8.1 1.3 51 4.0 W 6 13 3 7 1026.0 1026.0 0.0
23/08:30pm 11.1 8.0 0.2 47 4.5 WNW 6 9 3 5 1025.7 1025.7 0.0
23/08:00pm 11.8 8.6 -0.7 42 5.0 WSW 6 9 3 5 1025.4 1025.4 0.0
23/07:30pm 12.8 8.6 -0.8 39 5.5 SW 11 13 6 7 1025.0 1025.0 0.0
23/07:00pm 13.9 9.3 -1.3 35 6.2 W 13 24 7 13 1024.7 1024.7 0.0
23/06:30pm 14.6 9.2 -1.1 34 6.5 SW 17 28 9 15 1024.1 1024.1 0.0
23/06:00pm 15.6 9.7 -1.0 32 6.9 WSW 20 35 11 19 1023.4 1023.4 0.0
23/05:30pm 16.2 9.3 -0.1 33 7.0 WSW 26 39 14 21 1022.9 1022.9 0.0
23/05:00pm 16.7 10.3 1.2 35 6.8 W 24 33 13 18 1022.5 1022.5 0.0
23/04:30pm 16.9 9.7 1.0 34 7.0 WSW 28 48 15 26 1022.4 1022.4 0.0
23/04:00pm 16.4 9.0 2.1 38 6.4 SW 30 43 16 23 1022.0 1022.0 0.0
23/03:30pm 17.4 9.3 1.0 33 7.3 SW 33 46 18 25 1021.5 1021.5 0.0
23/03:00pm 18.7 10.2 1.2 31 7.8 SW 35 48 19 26 1021.1 1021.1 0.0
23/02:30pm 18.6 10.8 -0.7 27 8.3 WSW 30 50 16 27 1020.6 1020.6 0.0
23/02:09pm 19.0 10.6 -1.4 25 8.7 WSW 33 52 18 28 1020.5 1020.5 0.0
23/02:00pm 19.3 11.4 -1.2 25 8.8 WSW 30 44 16 24 1020.4 1020.4 0.0
23/01:30pm 19.3 12.6 -1.2 25 8.8 WSW 24 35 13 19 1020.5 1020.5 0.0
23/01:00pm 20.1 13.3 -1.7 23 9.3 WSW 24 39 13 21 1020.6 1020.6 0.0
23/12:30pm 20.7 12.4 -1.8 22 9.7 W 32 44 17 24 1020.6 1020.6 0.0
23/12:00pm 20.1 13.2 0.0 26 8.9 WSW 26 41 14 22 1021.1 1021.1 0.0
23/11:30am 20.0 12.6 -0.6 25 9.0 W 28 37 15 20 1021.3 1021.3 0.0
23/11:00am 18.7 10.8 -1.2 26 8.5 WSW 30 41 16 22 1021.6 1021.6 0.0
23/10:30am 19.6 12.5 1.1 29 8.4 SW 28 41 15 22 1021.9 1021.9 0.0
23/10:00am 18.8 13.7 0.9 30 8.0 WSW 17 30 9 16 1022.2 1022.2 0.0
23/09:30am 17.7 14.8 2.5 36 7.0 WSW 7 19 4 10 1022.6 1022.6 0.0
23/09:00am 16.7 13.8 4.4 44 5.8 NNW 9 13 5 7 1023.0 1023.0 0.0
23/08:30am 14.3 12.8 6.6 60 3.7 N 4 7 2 4 1023.1 1023.1 0.0
23/08:00am 12.1 11.5 7.2 72 2.4 CALM 0 0 0 0 1023.2 1023.2 0.0
23/07:30am 10.5 9.7 8.1 85 1.2 ENE 2 7 1 4 1023.3 1023.3 0.0
23/07:00am 7.9 7.4 7.8 99 0.0 CALM 0 0 0 0 1023.4 1023.4 0.0
23/06:35am 7.0 5.5 6.9 99 0.0 SSE 4 9 2 5 1023.1 1023.1 0.0
23/06:30am 6.8 6.0 6.7 99 0.0 CALM 0 0 0 0 1023.0 1023.0 0.0
23/06:00am 6.0 5.1 5.9 99 0.0 CALM 0 0 0 0 1022.9 1022.9 0.0
23/05:30am 6.6 5.8 6.5 99 0.0 CALM 0 0 0 0 1022.8 1022.8 0.0
23/05:16am 6.6 5.8 6.5 99 0.0 CALM 0 0 0 0 1022.9 1022.9 0.0
23/05:14am 6.7 5.9 6.6 99 0.0 CALM 0 0 0 0 1022.8 1022.8 0.0
23/05:00am 6.9 6.2 6.8 99 0.0 CALM 0 0 0 0 1022.6 1022.6 0.0
23/04:30am 7.5 6.9 7.4 99 0.0 CALM 0 0 0 0 1022.5 1022.5 0.0
23/04:00am 7.9 7.4 7.8 99 0.0 CALM 0 0 0 0 1022.4 1022.4 0.0
23/03:30am 8.3 7.9 8.2 99 0.0 CALM 0 0 0 0 1022.3 1022.3 0.0
23/03:14am 8.4 8.0 8.3 99 0.0 CALM 0 0 0 0 1022.3 1022.3 0.0
23/03:05am 8.6 8.3 8.5 99 0.0 CALM 0 0 0 0 1022.4 1022.4 0.0
23/03:00am 8.3 7.9 8.2 99 0.0 CALM 0 0 0 0 1022.5 1022.5 0.0
23/02:30am 9.2 9.0 9.1 99 0.0 CALM 0 0 0 0 1022.5 1022.5 0.0
23/02:00am 9.6 9.5 9.5 99 0.0 CALM 0 0 0 0 1022.6 1022.6 0.0
23/01:56am 9.8 9.8 9.7 99 0.1 CALM 0 0 0 0 1022.6 1022.6 0.0
23/01:30am 10.5 10.6 10.3 99 0.1 CALM 0 0 0 0 1022.6 1022.6 0.0
23/01:06am 11.2 11.5 11.0 99 0.1 CALM 0 0 0 0 1022.8 1022.8 0.0
23/01:00am 11.6 12.0 11.4 99 0.1 CALM 0 0 0 0 1022.8 1022.8 0.0
23/12:30am 11.7 12.2 11.5 99 0.1 CALM 0 0 0 0 1022.8 1022.8 0.0
23/12:00am 11.9 12.3 11.4 97 0.3 CALM 0 0 0 0 1022.9 1022.9 0.0
 
Date/Time
EST
Temp
°C
App
Temp
°C
Dew
Point
°C
Rel
Hum
%
Delta-T
°C
Wind Press
QNH
hPa
Press
MSL
hPa
Rain since
9am
mm
Dir  Spd
km/h
Gust
km/h
Spd
kts
Gust
kts
22/11:30pm 12.2 12.8 12.0 99 0.1 CALM 0 0 0 0 1022.7 1022.7 0.0
22/11:00pm 11.9 12.4 11.6 98 0.2 CALM 0 0 0 0 1022.7 1022.7 0.0
22/10:30pm 11.8 12.1 11.0 95 0.4 CALM 0 0 0 0 1023.0 1023.0 0.0
22/10:00pm 12.6 13.2 11.8 95 0.4 CALM 0 0 0 0 1023.2 1023.2 0.0
22/09:30pm 12.6 13.1 11.5 93 0.6 CALM 0 0 0 0 1023.1 1023.1 0.0
22/09:00pm 12.9 13.3 11.3 90 0.8 CALM 0 0 0 0 1023.0 1023.0 0.0
22/08:30pm 13.5 14.0 11.6 88 1.0 CALM 0 0 0 0 1022.9 1022.9 0.0
22/08:00pm 13.9 14.4 11.6 86 1.2 CALM 0 0 0 0 1022.7 1022.7 0.0
22/07:30pm 14.4 14.8 11.4 82 1.6 CALM 0 0 0 0 1022.6 1022.6 0.0
22/07:00pm 15.5 14.6 11.5 77 2.2 SSE 7 9 4 5 1022.2 1022.2 0.0
22/06:30pm 15.9 15.1 11.1 73 2.6 SE 6 7 3 4 1021.9 1021.9 0.0
22/06:00pm 16.5 15.0 10.6 68 3.1 ESE 9 11 5 6 1021.6 1021.6 0.0
22/05:30pm 17.3 15.5 10.7 65 3.5 E 11 17 6 9 1021.2 1021.2 0.0
22/05:00pm 19.0 16.5 8.1 49 5.6 ESE 11 22 6 12 1020.6 1020.6 0.0
22/04:30pm 20.0 16.6 9.3 50 5.7 ESE 17 30 9 16 1020.0 1020.0 0.0
22/04:00pm 21.0 17.8 8.6 45 6.5 ESE 15 24 8 13 1019.7 1019.6 0.0
22/03:30pm 21.1 17.1 8.4 44 6.7 E 19 30 10 16 1019.0 1018.9 0.0
22/03:00pm 24.0 21.9 8.4 37 8.3 E 9 15 5 8 1018.5 1018.4 0.0
22/02:30pm 24.5 22.2 8.9 37 8.4 E 11 17 6 9 1018.7 1018.6 0.0
22/02:00pm 24.6 22.4 9.3 38 8.3 SE 11 17 6 9 1019.1 1019.0 0.0
22/01:30pm 23.9 21.5 7.1 34 8.8 S 9 15 5 8 1019.3 1019.2 0.0
22/01:00pm 23.3 20.4 6.6 34 8.6 SSE 11 17 6 9 1019.8 1019.7 0.0
22/12:30pm 23.2 21.3 6.5 34 8.6 S 6 15 3 8 1020.3 1020.3 0.0
22/12:00pm 22.2 20.3 6.8 37 7.9 SW 6 11 3 6 1020.6 1020.6 0.0
22/11:30am 21.8 19.6 6.1 36 7.9 W 7 17 4 9 1020.9 1020.9 0.0
22/11:00am 21.6 18.3 6.3 37 7.7 W 13 22 7 12 1021.3 1021.3 0.0
22/10:30am 20.7 17.4 6.6 40 7.1 SW 13 22 7 12 1021.7 1021.7 0.0
22/10:00am 18.9 14.1 5.7 42 6.5 WSW 20 28 11 15 1021.8 1021.8 0.0
22/09:30am 19.4 13.8 7.2 45 6.2 WSW 26 35 14 19 1021.8 1021.8 0.0
22/09:00am 18.3 13.5 8.8 54 4.9 SW 24 33 13 18 1021.7 1021.7 0.6
22/08:30am 17.6 14.1 8.7 56 4.6 SW 17 26 9 14 1021.5 1021.5 0.6
22/08:00am 17.0 15.0 10.1 64 3.6 SSW 11 17 6 9 1021.3 1021.3 0.6
22/07:30am 16.4 13.4 10.5 68 3.1 SW 17 22 9 12 1021.0 1021.0 0.6
22/07:00am 16.5 15.5 13.4 82 1.7 S 11 24 6 13 1020.4 1020.4 0.6
22/06:30am 15.9 15.9 14.3 90 0.9 SSE 7 11 4 6 1020.0 1020.0 0.6
22/06:00am 15.1 16.7 14.8 98 0.2 CALM 0 0 0 0 1019.6 1019.5 0.6
22/05:30am 15.0 15.4 14.8 99 0.1 NE 6 9 3 5 1018.8 1018.7 0.6
22/05:00am 15.0 16.1 14.7 98 0.2 S 2 7 1 4 1018.2 1018.1 0.6
22/04:30am 14.9 16.4 14.7 99 0.1 CALM 0 0 0 0 1017.9 1017.8 0.6
22/04:00am 14.9 15.1 14.7 99 0.1 SSW 7 9 4 5 1017.4 1017.3 0.6
22/03:30am 14.9 16.4 14.7 99 0.1 CALM 0 2 0 1 1017.0 1016.9 0.6
22/03:00am 15.0 16.5 14.7 98 0.2 CALM 0 0 0 0 1017.3 1017.2 0.6
22/02:30am 15.3 16.9 14.8 97 0.3 CALM 0 0 0 0 1017.2 1017.1 0.6
22/02:00am 15.3 16.8 14.7 96 0.3 CALM 0 0 0 0 1017.4 1017.3 0.6
22/01:30am 15.4 16.8 14.4 94 0.6 CALM 0 0 0 0 1017.7 1017.6 0.6
22/01:00am 15.4 17.0 14.8 96 0.3 CALM 0 0 0 0 1018.0 1017.9 0.6
22/12:30am 15.5 15.8 14.4 93 0.6 ESE 6 7 3 4 1017.7 1017.6 0.6
22/12:00am 15.9 16.5 14.3 90 0.9 SE 4 9 2 5 1017.6 1017.5 0.6
 
Date/Time
EST
Temp
°C
App
Temp
°C
Dew
Point
°C
Rel
Hum
%
Delta-T
°C
Wind Press
QNH
hPa
Press
MSL
hPa
Rain since
9am
mm
Dir  Spd
km/h
Gust
km/h
Spd
kts
Gust
kts
21/11:30pm 15.8 16.4 14.3 91 0.9 SSW 4 9 2 5 1017.6 1017.5 0.6
21/11:00pm 15.7 17.1 14.4 92 0.7 CALM 0 7 0 4 1017.7 1017.6 0.6
21/10:30pm 15.9 17.3 14.4 91 0.9 CALM 0 0 0 0 1017.6 1017.5 0.6
21/10:00pm 16.1 16.4 14.5 90 0.9 NNE 6 9 3 5 1017.8 1017.7 0.6
21/09:30pm 17.0 17.9 14.1 83 1.7 ESE 2 7 1 4 1017.7 1017.6 0.6
21/09:00pm 17.5 17.9 13.8 79 2.1 ENE 4 9 2 5 1017.8 1017.7 0.6
21/08:30pm 18.3 17.2 14.4 78 2.3 NE 13 17 7 9 1018.2 1018.1 0.6
21/08:00pm 17.6 18.1 14.1 80 2.0 WSW 4 7 2 4 1018.3 1018.2 0.6
21/07:30pm 17.2 16.8 14.1 82 1.8 S 9 13 5 7 1018.2 1018.1 0.6
21/07:00pm 17.8 17.5 14.5 81 1.9 N 9 11 5 6 1017.8 1017.7 0.6
21/06:30pm 18.3 16.7 14.0 76 2.5 NNE 15 20 8 11 1017.6 1017.5 0.6
21/06:00pm 22.3 18.4 10.8 48 6.3 WNW 22 39 12 21 1018.3 1018.2 0.0
21/05:30pm 23.5 21.6 13.1 52 6.0 SW 15 24 8 13 1017.9 1017.8 0.0
21/05:00pm 23.6 22.5 14.3 56 5.5 SW 13 20 7 11 1017.2 1017.1 0.0
21/04:30pm 24.6 24.3 13.2 49 6.6 NW 7 9 4 5 1016.7 1016.6 0.0
21/04:00pm 25.2 23.1 12.4 45 7.4 N 15 17 8 9 1016.5 1016.4 0.0
21/03:30pm 25.3 22.6 12.9 46 7.2 NNE 19 26 10 14 1016.3 1016.2 0.0
21/03:00pm 25.3 22.3 13.8 49 6.8 NNE 22 30 12 16 1016.5 1016.4 0.0
21/02:30pm 25.6 22.9 13.5 47 7.1 NNE 20 28 11 15 1016.6 1016.5 0.0
21/02:00pm 25.6 23.3 14.7 51 6.5 NNE 20 30 11 16 1016.9 1016.8 0.0
21/01:30pm 24.6 22.2 14.4 53 6.1 NNE 20 28 11 15 1017.3 1017.2 0.0
21/01:00pm 24.7 22.0 13.6 50 6.5 N 20 32 11 17 1017.6 1017.5 0.0
21/12:30pm 23.2 20.5 13.4 54 5.7 N 20 26 11 14 1017.8 1017.7 0.0
21/12:00pm 22.9 20.2 13.4 55 5.5 NNE 20 28 11 15 1018.6 1018.5 0.0
21/11:30am 22.2 19.9 14.1 60 4.7 NNE 19 24 10 13 1019.4 1019.3 0.0
21/11:00am 20.8 18.7 13.7 64 4.1 N 17 22 9 12 1020.1 1020.1 0.0
21/10:30am 19.4 17.7 13.6 69 3.3 NNE 15 19 8 10 1020.7 1020.7 0.0
21/10:16am 19.5 17.5 13.9 70 3.2 NNE 17 22 9 12 1021.0 1021.0 0.0
21/10:00am 19.0 17.0 13.8 72 3.0 NNE 17 22 9 12 1021.2 1021.2 0.0
21/09:53am 18.9 17.4 14.2 74 2.7 NNE 15 20 8 11 1021.3 1021.3 0.0
21/09:30am 17.9 15.9 14.0 78 2.2 N 17 20 9 11 1021.7 1021.7 0.0
21/09:00am 17.4 15.4 13.9 80 2.0 N 17 20 9 11 1021.9 1021.9 0.0
21/08:30am 17.1 16.0 14.2 83 1.7 N 13 17 7 9 1022.1 1022.1 0.0
21/08:00am 16.4 16.0 14.2 87 1.3 N 9 13 5 7 1022.3 1022.3 0.0
21/07:30am 15.9 16.6 14.6 92 0.7 N 4 7 2 4 1022.1 1022.1 0.0
21/07:00am 15.4 16.9 14.6 95 0.5 CALM 0 0 0 0 1022.1 1022.1 0.0
21/06:30am 15.1 15.0 13.8 92 0.7 NNE 7 7 4 4 1021.7 1021.7 0.0
21/06:00am 15.3 15.1 13.7 90 0.9 NNE 7 9 4 5 1021.6 1021.6 0.0

Latest Capital City Observations: Canberra | Sydney | Melbourne | Brisbane | Adelaide | Perth | Hobart | Darwin

Other formats

Comma delimited format used in spreadsheet applications
http://www.bom.gov.au/fwo/IDN60901/IDN60901.94755.axf

JavaScript Object Notation format (JSON) in row-major order
http://www.bom.gov.au/fwo/IDN60901/IDN60901.94755.json

Data quality

Most of these data are generated automatically and are frequently updated. Quality checks on data are not normally performed. It is possible for incorrect values to appear. Refer to information at About Latest Weather Observations and please check the disclaimer before using these data.